sensor_id;sensor_type;location;lat;lon;timestamp;temperature;humidity
3542;DHT22;1785;47.388;8.538;2023-08-30T00:00:40;16.50;99.90
3542;DHT22;1785;47.388;8.538;2023-08-30T00:03:06;16.50;99.90
3542;DHT22;1785;47.388;8.538;2023-08-30T00:05:33;16.70;99.90
3542;DHT22;1785;47.388;8.538;2023-08-30T00:07:59;16.70;99.90
3542;DHT22;1785;47.388;8.538;2023-08-30T00:10:25;16.70;99.90
3542;DHT22;1785;47.388;8.538;2023-08-30T00:12:52;16.80;99.90
3542;DHT22;1785;47.388;8.538;2023-08-30T00:15:18;16.70;99.90
3542;DHT22;1785;47.388;8.538;2023-08-30T00:17:44;16.80;99.90
3542;DHT22;1785;47.388;8.538;2023-08-30T00:20:11;16.80;99.90
3542;DHT22;1785;47.388;8.538;2023-08-30T00:22:37;16.80;99.90
3542;DHT22;1785;47.388;8.538;2023-08-30T00:25:04;16.80;99.90
3542;DHT22;1785;47.388;8.538;2023-08-30T00:27:30;16.80;99.90
3542;DHT22;1785;47.388;8.538;2023-08-30T00:29:57;16.70;99.90
3542;DHT22;1785;47.388;8.538;2023-08-30T00:32:23;16.80;99.90
3542;DHT22;1785;47.388;8.538;2023-08-30T00:34:50;16.80;99.90
3542;DHT22;1785;47.388;8.538;2023-08-30T00:37:16;16.80;99.90
3542;DHT22;1785;47.388;8.538;2023-08-30T00:39:42;16.70;99.90
3542;DHT22;1785;47.388;8.538;2023-08-30T00:42:09;16.60;99.90
3542;DHT22;1785;47.388;8.538;2023-08-30T00:44:35;16.70;99.90
3542;DHT22;1785;47.388;8.538;2023-08-30T00:47:02;16.70;99.90
3542;DHT22;1785;47.388;8.538;2023-08-30T00:49:29;16.70;99.90
3542;DHT22;1785;47.388;8.538;2023-08-30T00:51:56;16.50;99.90
3542;DHT22;1785;47.388;8.538;2023-08-30T00:54:23;16.20;99.90
3542;DHT22;1785;47.388;8.538;2023-08-30T00:56:49;16.30;99.90
3542;DHT22;1785;47.388;8.538;2023-08-30T00:59:17;16.30;99.90
3542;DHT22;1785;47.388;8.538;2023-08-30T01:01:43;16.20;99.90
3542;DHT22;1785;47.388;8.538;2023-08-30T01:04:11;16.10;99.90
3542;DHT22;1785;47.388;8.538;2023-08-30T01:06:37;16.20;99.90
3542;DHT22;1785;47.388;8.538;2023-08-30T01:09:03;16.40;99.90
3542;DHT22;1785;47.388;8.538;2023-08-30T01:11:34;16.50;99.90
3542;DHT22;1785;47.388;8.538;2023-08-30T01:14:05;16.60;99.90
3542;DHT22;1785;47.388;8.538;2023-08-30T01:16:35;16.60;99.90
3542;DHT22;1785;47.388;8.538;2023-08-30T01:19:04;16.70;99.90
3542;DHT22;1785;47.388;8.538;2023-08-30T01:21:46;16.70;99.90
3542;DHT22;1785;47.388;8.538;2023-08-30T01:24:22;16.70;99.90
3542;DHT22;1785;47.388;8.538;2023-08-30T01:27:05;16.80;99.90
3542;DHT22;1785;47.388;8.538;2023-08-30T01:29:33;16.90;99.90
3542;DHT22;1785;47.388;8.538;2023-08-30T01:32:01;16.80;99.90
3542;DHT22;1785;47.388;8.538;2023-08-30T01:34:28;16.60;99.90
3542;DHT22;1785;47.388;8.538;2023-08-30T01:36:54;16.30;99.90
3542;DHT22;1785;47.388;8.538;2023-08-30T01:39:22;16.40;99.90
3542;DHT22;1785;47.388;8.538;2023-08-30T01:41:49;16.50;99.90
3542;DHT22;1785;47.388;8.538;2023-08-30T01:44:18;16.40;99.90
3542;DHT22;1785;47.388;8.538;2023-08-30T01:46:46;16.50;99.90
3542;DHT22;1785;47.388;8.538;2023-08-30T01:49:14;16.60;99.90
3542;DHT22;1785;47.388;8.538;2023-08-30T01:51:41;16.70;99.90
3542;DHT22;1785;47.388;8.538;2023-08-30T01:54:09;16.60;99.90
3542;DHT22;1785;47.388;8.538;2023-08-30T01:56:37;16.60;99.90
3542;DHT22;1785;47.388;8.538;2023-08-30T01:59:03;16.70;99.90
3542;DHT22;1785;47.388;8.538;2023-08-30T02:01:30;16.60;99.90
3542;DHT22;1785;47.388;8.538;2023-08-30T02:03:56;16.50;99.90
3542;DHT22;1785;47.388;8.538;2023-08-30T02:06:28;16.60;99.90
3542;DHT22;1785;47.388;8.538;2023-08-30T02:09:03;16.60;99.90
3542;DHT22;1785;47.388;8.538;2023-08-30T02:11:33;16.60;99.90
3542;DHT22;1785;47.388;8.538;2023-08-30T02:14:00;16.60;99.90
3542;DHT22;1785;47.388;8.538;2023-08-30T02:16:27;16.60;99.90
3542;DHT22;1785;47.388;8.538;2023-08-30T02:18:55;16.50;99.90
3542;DHT22;1785;47.388;8.538;2023-08-30T02:21:22;16.60;99.90
3542;DHT22;1785;47.388;8.538;2023-08-30T02:23:50;16.60;99.90
3542;DHT22;1785;47.388;8.538;2023-08-30T02:26:18;16.50;99.90
3542;DHT22;1785;47.388;8.538;2023-08-30T02:28:44;16.50;99.90
3542;DHT22;1785;47.388;8.538;2023-08-30T02:31:10;16.50;99.90
3542;DHT22;1785;47.388;8.538;2023-08-30T02:33:36;16.50;99.90
3542;DHT22;1785;47.388;8.538;2023-08-30T02:36:03;16.60;99.90
3542;DHT22;1785;47.388;8.538;2023-08-30T02:38:30;16.70;99.90
3542;DHT22;1785;47.388;8.538;2023-08-30T02:40:56;16.70;99.90
3542;DHT22;1785;47.388;8.538;2023-08-30T02:43:22;16.80;99.90
3542;DHT22;1785;47.388;8.538;2023-08-30T02:45:48;16.60;99.90
3542;DHT22;1785;47.388;8.538;2023-08-30T02:48:14;16.40;99.90
3542;DHT22;1785;47.388;8.538;2023-08-30T02:50:41;16.30;99.90
3542;DHT22;1785;47.388;8.538;2023-08-30T02:53:07;16.50;99.90
3542;DHT22;1785;47.388;8.538;2023-08-30T02:55:34;16.40;99.90
3542;DHT22;1785;47.388;8.538;2023-08-30T02:58:00;16.40;99.90
3542;DHT22;1785;47.388;8.538;2023-08-30T03:00:26;16.40;99.90
3542;DHT22;1785;47.388;8.538;2023-08-30T03:02:52;16.40;99.90
3542;DHT22;1785;47.388;8.538;2023-08-30T03:05:18;16.20;99.90
3542;DHT22;1785;47.388;8.538;2023-08-30T03:07:45;16.20;99.90
3542;DHT22;1785;47.388;8.538;2023-08-30T03:10:12;16.30;99.90
3542;DHT22;1785;47.388;8.538;2023-08-30T03:12:38;16.40;99.90
3542;DHT22;1785;47.388;8.538;2023-08-30T03:15:05;16.30;99.90
3542;DHT22;1785;47.388;8.538;2023-08-30T03:17:31;16.30;99.90
3542;DHT22;1785;47.388;8.538;2023-08-30T03:19:57;16.40;99.90
3542;DHT22;1785;47.388;8.538;2023-08-30T03:22:24;16.40;99.90
3542;DHT22;1785;47.388;8.538;2023-08-30T03:24:50;16.50;99.90
3542;DHT22;1785;47.388;8.538;2023-08-30T03:27:17;16.50;99.90
3542;DHT22;1785;47.388;8.538;2023-08-30T03:29:45;16.50;99.90
3542;DHT22;1785;47.388;8.538;2023-08-30T03:32:16;16.50;99.90
3542;DHT22;1785;47.388;8.538;2023-08-30T03:34:44;16.40;99.90
3542;DHT22;1785;47.388;8.538;2023-08-30T03:37:10;16.40;99.90
3542;DHT22;1785;47.388;8.538;2023-08-30T03:39:36;16.50;99.90
3542;DHT22;1785;47.388;8.538;2023-08-30T03:42:02;16.50;99.90
3542;DHT22;1785;47.388;8.538;2023-08-30T03:44:29;16.60;99.90
3542;DHT22;1785;47.388;8.538;2023-08-30T03:46:55;16.60;99.90
3542;DHT22;1785;47.388;8.538;2023-08-30T03:49:22;16.60;99.90
3542;DHT22;1785;47.388;8.538;2023-08-30T03:51:48;16.70;99.90
3542;DHT22;1785;47.388;8.538;2023-08-30T03:54:14;16.60;99.90
3542;DHT22;1785;47.388;8.538;2023-08-30T03:56:42;16.60;99.90
3542;DHT22;1785;47.388;8.538;2023-08-30T03:59:08;16.50;99.90
3542;DHT22;1785;47.388;8.538;2023-08-30T04:01:34;16.50;99.90
3542;DHT22;1785;47.388;8.538;2023-08-30T04:04:00;16.30;99.90
3542;DHT22;1785;47.388;8.538;2023-08-30T04:06:27;16.10;99.90
3542;DHT22;1785;47.388;8.538;2023-08-30T04:08:53;16.20;99.90
3542;DHT22;1785;47.388;8.538;2023-08-30T04:11:19;16.40;99.90
3542;DHT22;1785;47.388;8.538;2023-08-30T04:13:45;16.40;99.90
3542;DHT22;1785;47.388;8.538;2023-08-30T04:16:11;16.30;99.90
3542;DHT22;1785;47.388;8.538;2023-08-30T04:18:38;16.40;99.90
3542;DHT22;1785;47.388;8.538;2023-08-30T04:21:04;16.40;99.90
3542;DHT22;1785;47.388;8.538;2023-08-30T04:23:31;16.10;99.90
3542;DHT22;1785;47.388;8.538;2023-08-30T04:25:57;16.10;99.90
3542;DHT22;1785;47.388;8.538;2023-08-30T04:28:24;15.90;99.90
3542;DHT22;1785;47.388;8.538;2023-08-30T04:30:53;16.10;99.90
3542;DHT22;1785;47.388;8.538;2023-08-30T04:33:20;16.20;99.90
3542;DHT22;1785;47.388;8.538;2023-08-30T04:35:50;16.30;99.90
3542;DHT22;1785;47.388;8.538;2023-08-30T04:38:16;16.30;99.90
3542;DHT22;1785;47.388;8.538;2023-08-30T04:40:43;16.30;99.90
3542;DHT22;1785;47.388;8.538;2023-08-30T04:43:09;16.30;99.90
3542;DHT22;1785;47.388;8.538;2023-08-30T04:45:35;16.10;99.90
3542;DHT22;1785;47.388;8.538;2023-08-30T04:48:02;15.90;99.90
3542;DHT22;1785;47.388;8.538;2023-08-30T04:50:28;15.70;99.90
3542;DHT22;1785;47.388;8.538;2023-08-30T04:52:55;15.60;99.90
3542;DHT22;1785;47.388;8.538;2023-08-30T04:55:21;15.70;99.90
3542;DHT22;1785;47.388;8.538;2023-08-30T04:57:47;16.00;99.90
3542;DHT22;1785;47.388;8.538;2023-08-30T05:00:14;16.00;99.90
3542;DHT22;1785;47.388;8.538;2023-08-30T05:02:40;16.00;99.90
3542;DHT22;1785;47.388;8.538;2023-08-30T05:05:09;16.10;99.90
3542;DHT22;1785;47.388;8.538;2023-08-30T05:07:35;16.10;99.90
3542;DHT22;1785;47.388;8.538;2023-08-30T05:10:03;16.20;99.90
3542;DHT22;1785;47.388;8.538;2023-08-30T05:12:29;16.20;99.90
3542;DHT22;1785;47.388;8.538;2023-08-30T05:14:55;16.20;99.90
3542;DHT22;1785;47.388;8.538;2023-08-30T05:17:21;16.00;99.90
3542;DHT22;1785;47.388;8.538;2023-08-30T05:19:48;15.80;99.90
3542;DHT22;1785;47.388;8.538;2023-08-30T05:22:14;15.90;99.90
3542;DHT22;1785;47.388;8.538;2023-08-30T05:24:41;15.90;99.90
3542;DHT22;1785;47.388;8.538;2023-08-30T05:27:10;15.90;99.90
3542;DHT22;1785;47.388;8.538;2023-08-30T05:29:38;16.00;99.90
3542;DHT22;1785;47.388;8.538;2023-08-30T05:32:05;16.10;99.90
3542;DHT22;1785;47.388;8.538;2023-08-30T05:34:31;16.20;99.90
3542;DHT22;1785;47.388;8.538;2023-08-30T05:36:57;16.00;99.90
3542;DHT22;1785;47.388;8.538;2023-08-30T05:39:24;16.10;99.90
3542;DHT22;1785;47.388;8.538;2023-08-30T05:41:50;15.80;99.90
3542;DHT22;1785;47.388;8.538;2023-08-30T05:44:17;15.60;99.90
3542;DHT22;1785;47.388;8.538;2023-08-30T05:46:43;15.70;99.90
3542;DHT22;1785;47.388;8.538;2023-08-30T05:49:09;15.50;99.90
3542;DHT22;1785;47.388;8.538;2023-08-30T05:51:35;15.40;99.90
3542;DHT22;1785;47.388;8.538;2023-08-30T05:54:01;15.50;99.90
3542;DHT22;1785;47.388;8.538;2023-08-30T05:56:28;15.70;99.90
3542;DHT22;1785;47.388;8.538;2023-08-30T05:58:54;15.70;99.90
3542;DHT22;1785;47.388;8.538;2023-08-30T06:01:21;15.80;99.90
3542;DHT22;1785;47.388;8.538;2023-08-30T06:03:47;15.90;99.90
3542;DHT22;1785;47.388;8.538;2023-08-30T06:06:13;16.00;99.90
3542;DHT22;1785;47.388;8.538;2023-08-30T06:08:39;16.00;99.90
3542;DHT22;1785;47.388;8.538;2023-08-30T06:11:05;16.10;99.90
3542;DHT22;1785;47.388;8.538;2023-08-30T06:13:32;16.30;99.90
3542;DHT22;1785;47.388;8.538;2023-08-30T06:15:58;16.20;99.90
3542;DHT22;1785;47.388;8.538;2023-08-30T06:18:26;16.10;99.90
3542;DHT22;1785;47.388;8.538;2023-08-30T06:20:52;15.90;99.90
3542;DHT22;1785;47.388;8.538;2023-08-30T06:23:19;15.80;99.90
3542;DHT22;1785;47.388;8.538;2023-08-30T06:25:53;15.60;99.90
3542;DHT22;1785;47.388;8.538;2023-08-30T06:28:19;15.40;99.90
3542;DHT22;1785;47.388;8.538;2023-08-30T06:30:45;15.40;99.90
3542;DHT22;1785;47.388;8.538;2023-08-30T06:33:11;15.40;99.90
3542;DHT22;1785;47.388;8.538;2023-08-30T06:35:38;15.40;99.90
3542;DHT22;1785;47.388;8.538;2023-08-30T06:38:05;15.60;99.90
3542;DHT22;1785;47.388;8.538;2023-08-30T06:40:32;15.70;99.90
3542;DHT22;1785;47.388;8.538;2023-08-30T06:42:58;15.80;99.90
3542;DHT22;1785;47.388;8.538;2023-08-30T06:45:26;15.60;99.90
3542;DHT22;1785;47.388;8.538;2023-08-30T06:47:53;15.70;99.90
3542;DHT22;1785;47.388;8.538;2023-08-30T06:50:19;15.80;99.90
3542;DHT22;1785;47.388;8.538;2023-08-30T06:52:46;15.90;99.90
3542;DHT22;1785;47.388;8.538;2023-08-30T06:55:12;15.90;99.90
3542;DHT22;1785;47.388;8.538;2023-08-30T06:57:38;16.00;99.90
3542;DHT22;1785;47.388;8.538;2023-08-30T07:00:05;16.00;99.90
3542;DHT22;1785;47.388;8.538;2023-08-30T07:02:33;15.90;99.90
3542;DHT22;1785;47.388;8.538;2023-08-30T07:05:00;15.70;99.90
3542;DHT22;1785;47.388;8.538;2023-08-30T07:07:26;15.40;99.90
3542;DHT22;1785;47.388;8.538;2023-08-30T07:09:53;15.20;99.90
3542;DHT22;1785;47.388;8.538;2023-08-30T07:12:19;15.30;99.90
3542;DHT22;1785;47.388;8.538;2023-08-30T07:14:45;15.40;99.90
3542;DHT22;1785;47.388;8.538;2023-08-30T07:17:11;15.70;99.90
3542;DHT22;1785;47.388;8.538;2023-08-30T07:19:38;15.90;99.90
3542;DHT22;1785;47.388;8.538;2023-08-30T07:22:04;16.00;99.90
3542;DHT22;1785;47.388;8.538;2023-08-30T07:24:30;16.20;99.90
3542;DHT22;1785;47.388;8.538;2023-08-30T07:26:57;16.50;99.90
3542;DHT22;1785;47.388;8.538;2023-08-30T07:29:23;16.70;99.90
3542;DHT22;1785;47.388;8.538;2023-08-30T07:31:50;16.80;99.90
3542;DHT22;1785;47.388;8.538;2023-08-30T07:34:17;16.80;99.90
3542;DHT22;1785;47.388;8.538;2023-08-30T07:36:43;16.80;99.90
3542;DHT22;1785;47.388;8.538;2023-08-30T07:39:09;16.60;99.90
3542;DHT22;1785;47.388;8.538;2023-08-30T07:41:35;16.60;99.90
3542;DHT22;1785;47.388;8.538;2023-08-30T07:44:03;16.70;99.90
3542;DHT22;1785;47.388;8.538;2023-08-30T07:46:30;16.30;99.90
3542;DHT22;1785;47.388;8.538;2023-08-30T07:48:56;16.20;99.90
3542;DHT22;1785;47.388;8.538;2023-08-30T07:51:22;16.30;99.90
3542;DHT22;1785;47.388;8.538;2023-08-30T07:53:48;16.30;99.90
3542;DHT22;1785;47.388;8.538;2023-08-30T07:56:14;16.40;99.90
3542;DHT22;1785;47.388;8.538;2023-08-30T07:58:40;16.50;99.90
3542;DHT22;1785;47.388;8.538;2023-08-30T08:01:08;16.30;99.90
3542;DHT22;1785;47.388;8.538;2023-08-30T08:03:34;16.20;99.90
3542;DHT22;1785;47.388;8.538;2023-08-30T08:06:01;16.50;99.90
3542;DHT22;1785;47.388;8.538;2023-08-30T08:08:27;16.80;99.90
3542;DHT22;1785;47.388;8.538;2023-08-30T08:10:53;16.90;99.90
3542;DHT22;1785;47.388;8.538;2023-08-30T08:13:19;17.20;99.90
3542;DHT22;1785;47.388;8.538;2023-08-30T08:15:45;17.50;99.90
3542;DHT22;1785;47.388;8.538;2023-08-30T08:18:12;17.40;99.90
3542;DHT22;1785;47.388;8.538;2023-08-30T08:20:38;17.60;99.90
3542;DHT22;1785;47.388;8.538;2023-08-30T08:23:05;17.60;99.90
3542;DHT22;1785;47.388;8.538;2023-08-30T08:25:31;17.50;99.90
3542;DHT22;1785;47.388;8.538;2023-08-30T08:27:57;17.20;99.90
3542;DHT22;1785;47.388;8.538;2023-08-30T08:30:23;17.20;99.90
3542;DHT22;1785;47.388;8.538;2023-08-30T08:32:50;17.30;99.90
3542;DHT22;1785;47.388;8.538;2023-08-30T08:35:17;17.20;99.90
3542;DHT22;1785;47.388;8.538;2023-08-30T08:37:43;17.00;99.90
3542;DHT22;1785;47.388;8.538;2023-08-30T08:40:10;16.90;99.90
3542;DHT22;1785;47.388;8.538;2023-08-30T08:42:37;17.10;99.90
3542;DHT22;1785;47.388;8.538;2023-08-30T08:45:04;17.30;99.90
3542;DHT22;1785;47.388;8.538;2023-08-30T08:47:30;17.70;99.90
3542;DHT22;1785;47.388;8.538;2023-08-30T08:49:57;17.70;99.90
3542;DHT22;1785;47.388;8.538;2023-08-30T08:52:25;17.70;99.90
3542;DHT22;1785;47.388;8.538;2023-08-30T08:54:52;17.50;99.90
3542;DHT22;1785;47.388;8.538;2023-08-30T08:57:19;17.60;99.90
3542;DHT22;1785;47.388;8.538;2023-08-30T08:59:45;17.50;99.90
3542;DHT22;1785;47.388;8.538;2023-08-30T09:02:14;17.30;99.90
3542;DHT22;1785;47.388;8.538;2023-08-30T09:04:40;17.20;99.90
3542;DHT22;1785;47.388;8.538;2023-08-30T09:07:07;17.30;99.90
3542;DHT22;1785;47.388;8.538;2023-08-30T09:09:34;17.60;99.90
3542;DHT22;1785;47.388;8.538;2023-08-30T09:12:00;17.70;99.90
3542;DHT22;1785;47.388;8.538;2023-08-30T09:14:26;17.70;99.90
3542;DHT22;1785;47.388;8.538;2023-08-30T09:16:55;17.70;99.90
3542;DHT22;1785;47.388;8.538;2023-08-30T09:19:22;17.50;99.90
3542;DHT22;1785;47.388;8.538;2023-08-30T09:21:51;17.50;99.90
3542;DHT22;1785;47.388;8.538;2023-08-30T09:24:18;17.60;99.90
3542;DHT22;1785;47.388;8.538;2023-08-30T09:26:48;17.60;99.90
3542;DHT22;1785;47.388;8.538;2023-08-30T09:29:16;17.70;99.90
3542;DHT22;1785;47.388;8.538;2023-08-30T09:31:43;17.50;99.90
3542;DHT22;1785;47.388;8.538;2023-08-30T09:34:10;17.40;99.90
3542;DHT22;1785;47.388;8.538;2023-08-30T09:36:37;17.70;99.90
3542;DHT22;1785;47.388;8.538;2023-08-30T09:39:04;17.60;99.90
3542;DHT22;1785;47.388;8.538;2023-08-30T09:41:31;17.80;99.90
3542;DHT22;1785;47.388;8.538;2023-08-30T09:43:59;17.70;99.90
3542;DHT22;1785;47.388;8.538;2023-08-30T09:46:25;17.80;99.90
3542;DHT22;1785;47.388;8.538;2023-08-30T09:48:53;18.00;99.90
3542;DHT22;1785;47.388;8.538;2023-08-30T09:51:20;17.60;99.90
3542;DHT22;1785;47.388;8.538;2023-08-30T09:53:49;17.70;99.90
3542;DHT22;1785;47.388;8.538;2023-08-30T09:56:22;17.80;99.90
3542;DHT22;1785;47.388;8.538;2023-08-30T09:58:48;17.70;99.90
3542;DHT22;1785;47.388;8.538;2023-08-30T10:01:16;17.80;99.90
3542;DHT22;1785;47.388;8.538;2023-08-30T10:03:42;18.00;99.90
3542;DHT22;1785;47.388;8.538;2023-08-30T10:06:08;18.20;99.90
3542;DHT22;1785;47.388;8.538;2023-08-30T10:08:34;18.30;99.90
3542;DHT22;1785;47.388;8.538;2023-08-30T10:11:02;18.40;99.90
3542;DHT22;1785;47.388;8.538;2023-08-30T10:13:29;18.50;99.90
3542;DHT22;1785;47.388;8.538;2023-08-30T10:16:00;18.10;99.90
3542;DHT22;1785;47.388;8.538;2023-08-30T10:18:29;18.40;99.90
3542;DHT22;1785;47.388;8.538;2023-08-30T10:20:59;18.70;99.90
3542;DHT22;1785;47.388;8.538;2023-08-30T10:23:27;19.00;99.90
3542;DHT22;1785;47.388;8.538;2023-08-30T10:25:54;18.80;99.90
3542;DHT22;1785;47.388;8.538;2023-08-30T10:28:23;18.30;99.90
3542;DHT22;1785;47.388;8.538;2023-08-30T10:30:50;18.20;99.90
3542;DHT22;1785;47.388;8.538;2023-08-30T10:33:17;18.40;99.90
3542;DHT22;1785;47.388;8.538;2023-08-30T10:35:48;18.50;99.90
3542;DHT22;1785;47.388;8.538;2023-08-30T10:38:24;18.70;99.90
3542;DHT22;1785;47.388;8.538;2023-08-30T10:40:51;18.80;99.90
3542;DHT22;1785;47.388;8.538;2023-08-30T10:43:28;18.80;99.90
3542;DHT22;1785;47.388;8.538;2023-08-30T10:46:00;18.80;99.90
3542;DHT22;1785;47.388;8.538;2023-08-30T10:48:34;19.00;99.90
3542;DHT22;1785;47.388;8.538;2023-08-30T10:51:01;18.70;99.90
3542;DHT22;1785;47.388;8.538;2023-08-30T10:53:30;18.90;99.90
3542;DHT22;1785;47.388;8.538;2023-08-30T10:56:03;19.30;99.90
3542;DHT22;1785;47.388;8.538;2023-08-30T10:58:39;19.40;99.90
3542;DHT22;1785;47.388;8.538;2023-08-30T11:01:09;19.50;99.90
3542;DHT22;1785;47.388;8.538;2023-08-30T11:03:37;19.10;99.90
3542;DHT22;1785;47.388;8.538;2023-08-30T11:06:04;18.70;99.90
3542;DHT22;1785;47.388;8.538;2023-08-30T11:08:30;18.90;99.90
3542;DHT22;1785;47.388;8.538;2023-08-30T11:11:07;19.10;99.90
3542;DHT22;1785;47.388;8.538;2023-08-30T11:13:34;19.00;99.90
3542;DHT22;1785;47.388;8.538;2023-08-30T11:16:00;18.90;99.90
3542;DHT22;1785;47.388;8.538;2023-08-30T11:18:26;18.70;99.90
3542;DHT22;1785;47.388;8.538;2023-08-30T11:20:57;18.90;99.90
3542;DHT22;1785;47.388;8.538;2023-08-30T11:23:24;19.20;99.90
3542;DHT22;1785;47.388;8.538;2023-08-30T11:25:51;19.00;99.90
3542;DHT22;1785;47.388;8.538;2023-08-30T11:28:21;19.00;99.90
3542;DHT22;1785;47.388;8.538;2023-08-30T11:30:47;19.10;99.90
3542;DHT22;1785;47.388;8.538;2023-08-30T11:33:16;19.10;99.90
3542;DHT22;1785;47.388;8.538;2023-08-30T11:35:43;19.10;99.90
3542;DHT22;1785;47.388;8.538;2023-08-30T11:38:09;19.10;99.90
3542;DHT22;1785;47.388;8.538;2023-08-30T11:40:37;19.30;99.90
3542;DHT22;1785;47.388;8.538;2023-08-30T11:43:03;19.50;99.90
3542;DHT22;1785;47.388;8.538;2023-08-30T11:45:31;19.50;99.90
3542;DHT22;1785;47.388;8.538;2023-08-30T11:47:58;19.90;99.90
3542;DHT22;1785;47.388;8.538;2023-08-30T11:50:25;20.10;99.90
3542;DHT22;1785;47.388;8.538;2023-08-30T11:52:52;20.20;99.90
3542;DHT22;1785;47.388;8.538;2023-08-30T11:55:19;19.90;99.90
3542;DHT22;1785;47.388;8.538;2023-08-30T11:57:48;19.90;99.90
3542;DHT22;1785;47.388;8.538;2023-08-30T12:00:17;20.00;99.90
3542;DHT22;1785;47.388;8.538;2023-08-30T12:02:44;19.90;99.90
3542;DHT22;1785;47.388;8.538;2023-08-30T12:05:11;19.90;99.90
3542;DHT22;1785;47.388;8.538;2023-08-30T12:07:37;20.00;99.90
3542;DHT22;1785;47.388;8.538;2023-08-30T12:10:04;20.00;99.90
3542;DHT22;1785;47.388;8.538;2023-08-30T12:12:31;20.00;99.90
3542;DHT22;1785;47.388;8.538;2023-08-30T12:14:57;20.30;99.90
3542;DHT22;1785;47.388;8.538;2023-08-30T12:17:24;20.20;99.90
3542;DHT22;1785;47.388;8.538;2023-08-30T12:19:55;20.00;99.90
3542;DHT22;1785;47.388;8.538;2023-08-30T12:22:21;19.90;99.90
3542;DHT22;1785;47.388;8.538;2023-08-30T12:24:47;20.40;99.90
3542;DHT22;1785;47.388;8.538;2023-08-30T12:27:16;20.70;99.90
3542;DHT22;1785;47.388;8.538;2023-08-30T12:29:42;20.70;99.90
3542;DHT22;1785;47.388;8.538;2023-08-30T12:32:09;20.60;99.90
3542;DHT22;1785;47.388;8.538;2023-08-30T12:34:35;20.70;99.90
3542;DHT22;1785;47.388;8.538;2023-08-30T12:37:03;20.50;99.90
3542;DHT22;1785;47.388;8.538;2023-08-30T12:39:29;20.30;99.90
3542;DHT22;1785;47.388;8.538;2023-08-30T12:41:55;20.20;99.90
3542;DHT22;1785;47.388;8.538;2023-08-30T12:44:21;20.80;99.90
3542;DHT22;1785;47.388;8.538;2023-08-30T12:46:48;20.70;99.90
3542;DHT22;1785;47.388;8.538;2023-08-30T12:49:14;20.80;99.90
3542;DHT22;1785;47.388;8.538;2023-08-30T12:51:40;21.00;99.90
3542;DHT22;1785;47.388;8.538;2023-08-30T12:54:06;20.90;99.90
3542;DHT22;1785;47.388;8.538;2023-08-30T12:56:33;20.90;99.90
3542;DHT22;1785;47.388;8.538;2023-08-30T12:58:59;21.10;99.90
3542;DHT22;1785;47.388;8.538;2023-08-30T13:01:25;21.20;99.90
3542;DHT22;1785;47.388;8.538;2023-08-30T13:03:51;21.40;99.90
3542;DHT22;1785;47.388;8.538;2023-08-30T13:06:18;21.10;99.90
3542;DHT22;1785;47.388;8.538;2023-08-30T13:08:44;20.80;99.90
3542;DHT22;1785;47.388;8.538;2023-08-30T13:11:10;21.10;99.90
3542;DHT22;1785;47.388;8.538;2023-08-30T13:13:36;20.70;99.90
3542;DHT22;1785;47.388;8.538;2023-08-30T13:16:03;20.60;99.90
3542;DHT22;1785;47.388;8.538;2023-08-30T13:18:29;20.60;99.90
3542;DHT22;1785;47.388;8.538;2023-08-30T13:20:55;20.40;99.90
3542;DHT22;1785;47.388;8.538;2023-08-30T13:23:22;20.30;99.90
3542;DHT22;1785;47.388;8.538;2023-08-30T13:25:48;20.30;99.90
3542;DHT22;1785;47.388;8.538;2023-08-30T13:28:14;20.10;99.90
3542;DHT22;1785;47.388;8.538;2023-08-30T13:30:44;19.90;99.90
3542;DHT22;1785;47.388;8.538;2023-08-30T13:33:11;20.00;99.90
3542;DHT22;1785;47.388;8.538;2023-08-30T13:35:39;19.90;99.90
3542;DHT22;1785;47.388;8.538;2023-08-30T13:38:05;19.80;99.90
3542;DHT22;1785;47.388;8.538;2023-08-30T13:40:31;19.90;99.90
3542;DHT22;1785;47.388;8.538;2023-08-30T13:42:58;20.00;99.90
3542;DHT22;1785;47.388;8.538;2023-08-30T13:45:25;20.00;99.90
3542;DHT22;1785;47.388;8.538;2023-08-30T13:47:51;19.80;99.90
3542;DHT22;1785;47.388;8.538;2023-08-30T13:50:19;19.70;99.90
3542;DHT22;1785;47.388;8.538;2023-08-30T13:52:45;19.60;99.90
3542;DHT22;1785;47.388;8.538;2023-08-30T13:55:11;19.80;99.90
3542;DHT22;1785;47.388;8.538;2023-08-30T13:57:38;19.90;99.90
3542;DHT22;1785;47.388;8.538;2023-08-30T14:00:06;19.90;99.90
3542;DHT22;1785;47.388;8.538;2023-08-30T14:02:35;19.80;99.90
3542;DHT22;1785;47.388;8.538;2023-08-30T14:05:02;19.70;99.90
3542;DHT22;1785;47.388;8.538;2023-08-30T14:07:28;19.50;99.90
3542;DHT22;1785;47.388;8.538;2023-08-30T14:09:54;19.60;99.90
3542;DHT22;1785;47.388;8.538;2023-08-30T14:12:21;19.50;99.90
3542;DHT22;1785;47.388;8.538;2023-08-30T14:14:48;19.50;99.90
3542;DHT22;1785;47.388;8.538;2023-08-30T14:17:15;19.60;99.90
3542;DHT22;1785;47.388;8.538;2023-08-30T14:19:41;19.90;99.90
3542;DHT22;1785;47.388;8.538;2023-08-30T14:22:07;20.10;99.90
3542;DHT22;1785;47.388;8.538;2023-08-30T14:24:33;20.30;99.90
3542;DHT22;1785;47.388;8.538;2023-08-30T14:27:00;20.20;99.90
3542;DHT22;1785;47.388;8.538;2023-08-30T14:29:26;20.30;99.90
3542;DHT22;1785;47.388;8.538;2023-08-30T14:31:53;20.50;99.90
3542;DHT22;1785;47.388;8.538;2023-08-30T14:34:20;21.00;99.90
3542;DHT22;1785;47.388;8.538;2023-08-30T14:36:46;21.00;99.90
3542;DHT22;1785;47.388;8.538;2023-08-30T14:39:14;20.90;99.90
3542;DHT22;1785;47.388;8.538;2023-08-30T14:41:40;20.80;99.90
3542;DHT22;1785;47.388;8.538;2023-08-30T14:44:07;20.70;99.90
3542;DHT22;1785;47.388;8.538;2023-08-30T14:46:33;21.00;99.90
3542;DHT22;1785;47.388;8.538;2023-08-30T14:49:00;21.30;99.90
3542;DHT22;1785;47.388;8.538;2023-08-30T14:51:26;21.50;99.90
3542;DHT22;1785;47.388;8.538;2023-08-30T14:53:52;21.70;99.90
3542;DHT22;1785;47.388;8.538;2023-08-30T14:56:18;21.60;99.90
3542;DHT22;1785;47.388;8.538;2023-08-30T14:58:45;21.60;99.90
3542;DHT22;1785;47.388;8.538;2023-08-30T15:01:14;21.40;99.90
3542;DHT22;1785;47.388;8.538;2023-08-30T15:03:40;21.30;99.90
3542;DHT22;1785;47.388;8.538;2023-08-30T15:06:08;21.30;99.90
3542;DHT22;1785;47.388;8.538;2023-08-30T15:08:35;21.20;99.90
3542;DHT22;1785;47.388;8.538;2023-08-30T15:11:01;20.90;99.90
3542;DHT22;1785;47.388;8.538;2023-08-30T15:13:29;20.90;99.90
3542;DHT22;1785;47.388;8.538;2023-08-30T15:15:55;20.80;99.90
3542;DHT22;1785;47.388;8.538;2023-08-30T15:18:21;20.80;99.90
3542;DHT22;1785;47.388;8.538;2023-08-30T15:20:47;21.00;99.90
3542;DHT22;1785;47.388;8.538;2023-08-30T15:23:15;21.00;99.90
3542;DHT22;1785;47.388;8.538;2023-08-30T15:25:44;20.70;99.90
3542;DHT22;1785;47.388;8.538;2023-08-30T15:28:10;20.60;99.90
3542;DHT22;1785;47.388;8.538;2023-08-30T15:30:36;20.60;99.90
3542;DHT22;1785;47.388;8.538;2023-08-30T15:33:02;20.60;99.90
3542;DHT22;1785;47.388;8.538;2023-08-30T15:35:29;20.90;99.90
3542;DHT22;1785;47.388;8.538;2023-08-30T15:37:55;21.10;99.90
3542;DHT22;1785;47.388;8.538;2023-08-30T15:40:21;21.40;99.90
3542;DHT22;1785;47.388;8.538;2023-08-30T15:42:48;21.70;99.90
3542;DHT22;1785;47.388;8.538;2023-08-30T15:45:14;21.90;99.90
3542;DHT22;1785;47.388;8.538;2023-08-30T15:47:41;22.00;99.90
3542;DHT22;1785;47.388;8.538;2023-08-30T15:50:07;21.30;99.90
3542;DHT22;1785;47.388;8.538;2023-08-30T15:52:33;21.10;99.90
3542;DHT22;1785;47.388;8.538;2023-08-30T15:54:59;21.20;99.90
3542;DHT22;1785;47.388;8.538;2023-08-30T15:57:26;21.30;99.90
3542;DHT22;1785;47.388;8.538;2023-08-30T15:59:52;21.40;99.90